sensor_id;sensor_type;location;lat;lon;timestamp;pressure;altitude;pressure_sealevel;temperature;humidity
51245;BME280;37840;47.562;18.738;2023-08-30T00:01:15;98582.91;;;18.46;93.77
51245;BME280;37840;47.562;18.738;2023-08-30T00:03:40;98581.81;;;18.40;94.21
51245;BME280;37840;47.562;18.738;2023-08-30T00:06:07;98583.84;;;18.38;94.65
51245;BME280;37840;47.562;18.738;2023-08-30T00:08:33;98587.56;;;18.37;95.08
51245;BME280;37840;47.562;18.738;2023-08-30T00:10:59;98591.09;;;18.38;94.46
51245;BME280;37840;47.562;18.738;2023-08-30T00:13:26;98599.37;;;18.36;95.04
51245;BME280;37840;47.562;18.738;2023-08-30T00:15:52;98599.37;;;18.36;95.08
51245;BME280;37840;47.562;18.738;2023-08-30T00:18:18;98598.91;;;18.32;95.49
51245;BME280;37840;47.562;18.738;2023-08-30T00:20:44;98598.63;;;18.27;95.56
51245;BME280;37840;47.562;18.738;2023-08-30T00:23:10;98613.28;;;18.25;95.11
51245;BME280;37840;47.562;18.738;2023-08-30T00:25:36;98607.72;;;18.26;95.63
51245;BME280;37840;47.562;18.738;2023-08-30T00:28:02;98616.81;;;18.25;95.35
51245;BME280;37840;47.562;18.738;2023-08-30T00:30:28;98616.81;;;18.25;94.95
51245;BME280;37840;47.562;18.738;2023-08-30T00:32:54;98614.31;;;18.24;94.41
51245;BME280;37840;47.562;18.738;2023-08-30T00:35:20;98608.28;;;18.37;93.92
51245;BME280;37840;47.562;18.738;2023-08-30T00:37:46;98608.47;;;18.35;93.43
51245;BME280;37840;47.562;18.738;2023-08-30T00:40:12;98600.56;;;18.33;93.71
51245;BME280;37840;47.562;18.738;2023-08-30T00:42:38;98596.47;;;18.38;94.04
51245;BME280;37840;47.562;18.738;2023-08-30T00:45:06;98601.50;;;18.41;93.58
51245;BME280;37840;47.562;18.738;2023-08-30T00:47:33;98604.56;;;18.38;93.15
51245;BME280;37840;47.562;18.738;2023-08-30T00:50:00;98610.41;;;18.41;94.04
51245;BME280;37840;47.562;18.738;2023-08-30T00:52:26;98611.41;;;18.40;94.00
51245;BME280;37840;47.562;18.738;2023-08-30T00:54:52;98614.97;;;18.41;93.91
51245;BME280;37840;47.562;18.738;2023-08-30T00:57:18;98614.31;;;18.39;94.92
51245;BME280;37840;47.562;18.738;2023-08-30T00:59:44;98605.38;;;18.38;94.90
51245;BME280;37840;47.562;18.738;2023-08-30T01:02:10;98610.16;;;18.36;95.12
51245;BME280;37840;47.562;18.738;2023-08-30T01:04:37;98615.97;;;18.40;94.69
51245;BME280;37840;47.562;18.738;2023-08-30T01:07:03;98623.69;;;18.43;94.13
51245;BME280;37840;47.562;18.738;2023-08-30T01:09:29;98626.63;;;18.48;93.43
51245;BME280;37840;47.562;18.738;2023-08-30T01:12:10;98622.19;;;18.40;93.56
51245;BME280;37840;47.562;18.738;2023-08-30T01:14:49;98621.06;;;18.49;94.04
51245;BME280;37840;47.562;18.738;2023-08-30T01:17:18;98620.91;;;18.51;94.61
51245;BME280;37840;47.562;18.738;2023-08-30T01:20:00;98617.16;;;18.52;94.33
51245;BME280;37840;47.562;18.738;2023-08-30T01:25:27;98611.81;;;18.37;94.05
51245;BME280;37840;47.562;18.738;2023-08-30T01:27:58;98603.72;;;18.37;94.53
51245;BME280;37840;47.562;18.738;2023-08-30T01:30:26;98592.38;;;18.42;94.48
51245;BME280;37840;47.562;18.738;2023-08-30T01:32:53;98602.34;;;18.41;94.22
51245;BME280;37840;47.562;18.738;2023-08-30T01:35:22;98605.59;;;18.37;95.20
51245;BME280;37840;47.562;18.738;2023-08-30T01:37:49;98604.38;;;18.24;95.27
51245;BME280;37840;47.562;18.738;2023-08-30T01:40:18;98610.59;;;18.25;95.64
51245;BME280;37840;47.562;18.738;2023-08-30T01:42:44;98619.13;;;18.28;95.21
51245;BME280;37840;47.562;18.738;2023-08-30T01:45:12;98615.63;;;18.28;95.49
51245;BME280;37840;47.562;18.738;2023-08-30T01:47:42;98600.88;;;18.24;95.54
51245;BME280;37840;47.562;18.738;2023-08-30T01:50:09;98615.78;;;18.26;95.21
51245;BME280;37840;47.562;18.738;2023-08-30T01:52:36;98610.69;;;18.31;95.43
51245;BME280;37840;47.562;18.738;2023-08-30T01:55:03;98614.59;;;18.29;95.58
51245;BME280;37840;47.562;18.738;2023-08-30T01:57:29;98605.50;;;18.30;95.41
51245;BME280;37840;47.562;18.738;2023-08-30T01:59:55;98599.00;;;18.24;95.70
51245;BME280;37840;47.562;18.738;2023-08-30T02:02:21;98596.31;;;18.24;95.87
51245;BME280;37840;47.562;18.738;2023-08-30T02:04:46;98605.31;;;18.17;95.88
51245;BME280;37840;47.562;18.738;2023-08-30T02:07:21;98603.91;;;18.21;96.43
51245;BME280;37840;47.562;18.738;2023-08-30T02:10:00;98608.28;;;18.22;96.24
51245;BME280;37840;47.562;18.738;2023-08-30T02:12:37;98609.69;;;18.18;96.56
51245;BME280;37840;47.562;18.738;2023-08-30T02:15:07;98609.84;;;18.16;96.41
51245;BME280;37840;47.562;18.738;2023-08-30T02:17:35;98604.47;;;18.16;97.22
51245;BME280;37840;47.562;18.738;2023-08-30T02:20:02;98606.25;;;18.09;96.69
51245;BME280;37840;47.562;18.738;2023-08-30T02:22:30;98606.44;;;18.07;97.00
51245;BME280;37840;47.562;18.738;2023-08-30T02:24:56;98604.94;;;18.05;97.48
51245;BME280;37840;47.562;18.738;2023-08-30T02:27:23;98611.53;;;18.02;97.47
51245;BME280;37840;47.562;18.738;2023-08-30T02:29:49;98611.53;;;18.02;98.08
51245;BME280;37840;47.562;18.738;2023-08-30T02:32:15;98609.84;;;18.01;98.35
51245;BME280;37840;47.562;18.738;2023-08-30T02:34:49;98604.13;;;18.04;98.68
51245;BME280;37840;47.562;18.738;2023-08-30T02:37:16;98598.75;;;18.04;98.87
51245;BME280;37840;47.562;18.738;2023-08-30T02:39:42;98605.59;;;18.07;98.88
51245;BME280;37840;47.562;18.738;2023-08-30T02:42:08;98612.47;;;18.09;98.48
51245;BME280;37840;47.562;18.738;2023-08-30T02:44:34;98613.66;;;18.07;97.79
51245;BME280;37840;47.562;18.738;2023-08-30T02:46:59;98618.50;;;18.11;97.86
51245;BME280;37840;47.562;18.738;2023-08-30T02:49:25;98620.78;;;18.14;97.65
51245;BME280;37840;47.562;18.738;2023-08-30T02:51:51;98621.44;;;18.17;97.71
51245;BME280;37840;47.562;18.738;2023-08-30T02:54:17;98622.84;;;18.12;98.16
51245;BME280;37840;47.562;18.738;2023-08-30T02:56:44;98620.16;;;18.12;97.73
51245;BME280;37840;47.562;18.738;2023-08-30T02:59:11;98623.03;;;18.11;96.62
51245;BME280;37840;47.562;18.738;2023-08-30T03:01:37;98623.69;;;18.13;96.87
51245;BME280;37840;47.562;18.738;2023-08-30T03:04:07;98629.59;;;18.08;96.54
51245;BME280;37840;47.562;18.738;2023-08-30T03:06:34;98630.63;;;18.07;96.87
51245;BME280;37840;47.562;18.738;2023-08-30T03:09:01;98622.56;;;18.07;97.60
51245;BME280;37840;47.562;18.738;2023-08-30T03:11:27;98625.16;;;18.01;97.69
51245;BME280;37840;47.562;18.738;2023-08-30T03:13:53;98631.53;;;18.00;98.29
51245;BME280;37840;47.562;18.738;2023-08-30T03:16:20;98632.41;;;18.00;98.68
51245;BME280;37840;47.562;18.738;2023-08-30T03:18:47;98632.09;;;17.95;99.11
51245;BME280;37840;47.562;18.738;2023-08-30T03:21:13;98625.91;;;17.95;99.32
51245;BME280;37840;47.562;18.738;2023-08-30T03:23:41;98625.91;;;17.95;99.31
51245;BME280;37840;47.562;18.738;2023-08-30T03:28:36;98626.28;;;17.91;97.67
51245;BME280;37840;47.562;18.738;2023-08-30T03:31:10;98631.84;;;17.90;97.29
51245;BME280;37840;47.562;18.738;2023-08-30T03:33:36;98638.31;;;17.96;97.10
51245;BME280;37840;47.562;18.738;2023-08-30T03:36:02;98633.88;;;18.03;96.72
51245;BME280;37840;47.562;18.738;2023-08-30T03:38:28;98640.91;;;18.04;96.87
51245;BME280;37840;47.562;18.738;2023-08-30T03:40:54;98630.72;;;17.99;96.21
51245;BME280;37840;47.562;18.738;2023-08-30T03:43:20;98629.41;;;17.95;96.52
51245;BME280;37840;47.562;18.738;2023-08-30T03:45:46;98630.91;;;17.98;96.56
51245;BME280;37840;47.562;18.738;2023-08-30T03:48:12;98635.28;;;17.99;95.94
51245;BME280;37840;47.562;18.738;2023-08-30T03:50:38;98639.34;;;17.95;96.67
51245;BME280;37840;47.562;18.738;2023-08-30T03:53:04;98635.63;;;17.96;95.79
51245;BME280;37840;47.562;18.738;2023-08-30T03:55:29;98632.09;;;17.95;95.72
51245;BME280;37840;47.562;18.738;2023-08-30T03:57:55;98636.00;;;17.92;96.29
51245;BME280;37840;47.562;18.738;2023-08-30T04:00:21;98629.13;;;17.90;95.29
51245;BME280;37840;47.562;18.738;2023-08-30T04:02:48;98636.37;;;17.89;95.53
51245;BME280;37840;47.562;18.738;2023-08-30T04:05:15;98642.09;;;17.86;95.38
51245;BME280;37840;47.562;18.738;2023-08-30T04:07:41;98645.19;;;17.83;95.25
51245;BME280;37840;47.562;18.738;2023-08-30T04:10:07;98646.19;;;17.82;95.84
51245;BME280;37840;47.562;18.738;2023-08-30T04:12:33;98647.50;;;17.86;95.93
51245;BME280;37840;47.562;18.738;2023-08-30T04:15:01;98653.91;;;17.85;95.13
51245;BME280;37840;47.562;18.738;2023-08-30T04:17:27;98650.34;;;17.85;95.42
51245;BME280;37840;47.562;18.738;2023-08-30T04:19:54;98656.22;;;17.88;95.63
51245;BME280;37840;47.562;18.738;2023-08-30T04:22:20;98654.00;;;17.92;95.04
51245;BME280;37840;47.562;18.738;2023-08-30T04:24:46;98654.19;;;17.90;95.28
51245;BME280;37840;47.562;18.738;2023-08-30T04:27:12;98658.06;;;17.88;96.20
51245;BME280;37840;47.562;18.738;2023-08-30T04:29:38;98658.25;;;17.86;95.67
51245;BME280;37840;47.562;18.738;2023-08-30T04:32:05;98662.78;;;17.86;96.61
51245;BME280;37840;47.562;18.738;2023-08-30T04:34:32;98657.59;;;17.84;97.02
51245;BME280;37840;47.562;18.738;2023-08-30T04:36:58;98665.84;;;17.83;97.38
51245;BME280;37840;47.562;18.738;2023-08-30T04:39:23;98666.31;;;17.86;97.02
51245;BME280;37840;47.562;18.738;2023-08-30T04:41:49;98665.97;;;17.89;96.36
51245;BME280;37840;47.562;18.738;2023-08-30T04:44:15;98661.41;;;17.90;95.52
51245;BME280;37840;47.562;18.738;2023-08-30T04:46:43;98673.00;;;17.90;95.70
51245;BME280;37840;47.562;18.738;2023-08-30T04:49:09;98665.75;;;17.91;95.87
51245;BME280;37840;47.562;18.738;2023-08-30T04:51:34;98666.97;;;17.88;95.75
51245;BME280;37840;47.562;18.738;2023-08-30T04:54:00;98671.53;;;17.88;95.56
51245;BME280;37840;47.562;18.738;2023-08-30T04:56:26;98666.78;;;17.90;94.91
51245;BME280;37840;47.562;18.738;2023-08-30T04:58:52;98664.44;;;17.87;95.61
51245;BME280;37840;47.562;18.738;2023-08-30T05:01:18;98659.72;;;17.89;94.92
51245;BME280;37840;47.562;18.738;2023-08-30T05:03:44;98663.94;;;17.91;94.29
51245;BME280;37840;47.562;18.738;2023-08-30T05:06:10;98653.34;;;17.90;94.13
51245;BME280;37840;47.562;18.738;2023-08-30T05:08:37;98651.66;;;17.89;94.72
51245;BME280;37840;47.562;18.738;2023-08-30T05:11:03;98655.72;;;17.85;94.14
51245;BME280;37840;47.562;18.738;2023-08-30T05:13:29;98662.97;;;17.84;94.38
51245;BME280;37840;47.562;18.738;2023-08-30T05:15:55;98664.53;;;17.79;95.35
51245;BME280;37840;47.562;18.738;2023-08-30T05:18:21;98669.53;;;17.82;94.90
51245;BME280;37840;47.562;18.738;2023-08-30T05:20:47;98669.53;;;17.82;94.37
51245;BME280;37840;47.562;18.738;2023-08-30T05:23:13;98672.06;;;17.83;94.65
51245;BME280;37840;47.562;18.738;2023-08-30T05:25:39;98673.06;;;17.82;94.61
51245;BME280;37840;47.562;18.738;2023-08-30T05:28:05;98675.91;;;17.81;94.52
51245;BME280;37840;47.562;18.738;2023-08-30T05:30:31;98677.25;;;17.85;95.54
51245;BME280;37840;47.562;18.738;2023-08-30T05:32:57;98678.56;;;17.89;96.00
51245;BME280;37840;47.562;18.738;2023-08-30T05:35:23;98673.66;;;17.92;95.15
51245;BME280;37840;47.562;18.738;2023-08-30T05:37:48;98672.81;;;17.92;94.39
51245;BME280;37840;47.562;18.738;2023-08-30T05:40:16;98676.53;;;17.91;94.80
51245;BME280;37840;47.562;18.738;2023-08-30T05:42:42;98674.87;;;17.90;94.94
51245;BME280;37840;47.562;18.738;2023-08-30T05:45:09;98675.41;;;17.85;95.09
51245;BME280;37840;47.562;18.738;2023-08-30T05:47:35;98678.38;;;17.90;96.07
51245;BME280;37840;47.562;18.738;2023-08-30T05:50:01;98674.31;;;17.95;95.68
51245;BME280;37840;47.562;18.738;2023-08-30T05:52:27;98670.13;;;17.92;95.24
51245;BME280;37840;47.562;18.738;2023-08-30T05:54:52;98671.12;;;17.91;96.00
51245;BME280;37840;47.562;18.738;2023-08-30T05:57:18;98667.78;;;17.89;95.65
51245;BME280;37840;47.562;18.738;2023-08-30T05:59:44;98672.00;;;17.91;93.82
51245;BME280;37840;47.562;18.738;2023-08-30T06:02:10;98670.31;;;17.90;93.87
51245;BME280;37840;47.562;18.738;2023-08-30T06:04:36;98680.59;;;17.87;93.78
51245;BME280;37840;47.562;18.738;2023-08-30T06:07:02;98670.88;;;17.86;94.00
51245;BME280;37840;47.562;18.738;2023-08-30T06:09:29;98676.91;;;17.88;94.84
51245;BME280;37840;47.562;18.738;2023-08-30T06:11:55;98674.03;;;17.89;94.67
51245;BME280;37840;47.562;18.738;2023-08-30T06:14:21;98669.47;;;17.90;94.70
51245;BME280;37840;47.562;18.738;2023-08-30T06:16:47;98676.72;;;17.89;93.78
51245;BME280;37840;47.562;18.738;2023-08-30T06:19:15;98682.37;;;17.95;94.59
51245;BME280;37840;47.562;18.738;2023-08-30T06:21:41;98695.00;;;17.94;95.60
51245;BME280;37840;47.562;18.738;2023-08-30T06:24:07;98691.75;;;17.99;93.98
51245;BME280;37840;47.562;18.738;2023-08-30T06:26:33;98702.34;;;18.00;93.79
51245;BME280;37840;47.562;18.738;2023-08-30T06:28:58;98709.38;;;18.01;93.86
51245;BME280;37840;47.562;18.738;2023-08-30T06:31:24;98700.81;;;17.98;93.21
51245;BME280;37840;47.562;18.738;2023-08-30T06:33:52;98701.03;;;17.96;93.82
51245;BME280;37840;47.562;18.738;2023-08-30T06:36:17;98703.34;;;17.99;93.56
51245;BME280;37840;47.562;18.738;2023-08-30T06:38:44;98706.69;;;18.01;93.40
51245;BME280;37840;47.562;18.738;2023-08-30T06:41:10;98708.38;;;18.02;93.14
51245;BME280;37840;47.562;18.738;2023-08-30T06:43:37;98709.22;;;18.03;92.78
51245;BME280;37840;47.562;18.738;2023-08-30T06:46:03;98707.16;;;18.05;92.50
51245;BME280;37840;47.562;18.738;2023-08-30T06:48:29;98703.28;;;18.07;92.78
51245;BME280;37840;47.562;18.738;2023-08-30T06:50:58;98701.78;;;18.05;93.12
51245;BME280;37840;47.562;18.738;2023-08-30T06:53:27;98701.78;;;18.05;93.10
51245;BME280;37840;47.562;18.738;2023-08-30T06:56:00;98702.78;;;18.04;93.16
51245;BME280;37840;47.562;18.738;2023-08-30T06:58:27;98703.09;;;18.09;93.82
51245;BME280;37840;47.562;18.738;2023-08-30T07:00:53;98711.63;;;18.12;93.18
51245;BME280;37840;47.562;18.738;2023-08-30T07:03:19;98709.78;;;18.13;91.97
51245;BME280;37840;47.562;18.738;2023-08-30T07:05:45;98704.94;;;18.08;92.41
51245;BME280;37840;47.562;18.738;2023-08-30T07:08:16;98706.25;;;18.12;92.83
51245;BME280;37840;47.562;18.738;2023-08-30T07:10:42;98709.78;;;18.13;92.71
51245;BME280;37840;47.562;18.738;2023-08-30T07:13:08;98705.78;;;18.09;93.33
51245;BME280;37840;47.562;18.738;2023-08-30T07:15:41;98709.41;;;18.16;92.43
51245;BME280;37840;47.562;18.738;2023-08-30T07:18:09;98702.66;;;18.20;91.76
51245;BME280;37840;47.562;18.738;2023-08-30T07:20:35;98705.16;;;18.22;91.73
51245;BME280;37840;47.562;18.738;2023-08-30T07:23:02;98708.28;;;18.25;92.22
51245;BME280;37840;47.562;18.738;2023-08-30T07:25:31;98717.69;;;18.29;90.67
51245;BME280;37840;47.562;18.738;2023-08-30T07:28:03;98710.81;;;18.27;91.67
51245;BME280;37840;47.562;18.738;2023-08-30T07:30:29;98715.28;;;18.34;90.93
51245;BME280;37840;47.562;18.738;2023-08-30T07:32:56;98709.25;;;18.32;91.06
51245;BME280;37840;47.562;18.738;2023-08-30T07:35:22;98716.94;;;18.36;90.38
51245;BME280;37840;47.562;18.738;2023-08-30T07:37:48;98719.28;;;18.39;90.83
51245;BME280;37840;47.562;18.738;2023-08-30T07:40:15;98726.72;;;18.37;91.13
51245;BME280;37840;47.562;18.738;2023-08-30T07:42:41;98734.19;;;18.26;91.32
51245;BME280;37840;47.562;18.738;2023-08-30T07:45:08;98737.81;;;18.33;91.62
51245;BME280;37840;47.562;18.738;2023-08-30T07:47:34;98738.94;;;18.39;91.13
51245;BME280;37840;47.562;18.738;2023-08-30T07:50:00;98742.56;;;18.46;91.48
51245;BME280;37840;47.562;18.738;2023-08-30T07:52:26;98738.22;;;18.45;92.15
51245;BME280;37840;47.562;18.738;2023-08-30T07:54:52;98734.56;;;18.38;91.96
51245;BME280;37840;47.562;18.738;2023-08-30T07:57:18;98738.28;;;18.37;91.62
51245;BME280;37840;47.562;18.738;2023-08-30T07:59:44;98743.50;;;18.39;91.42
51245;BME280;37840;47.562;18.738;2023-08-30T08:02:10;98751.37;;;18.40;91.97
51245;BME280;37840;47.562;18.738;2023-08-30T08:04:36;98744.25;;;18.47;91.13
51245;BME280;37840;47.562;18.738;2023-08-30T08:07:03;98739.22;;;18.44;91.35
51245;BME280;37840;47.562;18.738;2023-08-30T08:09:31;98735.63;;;18.52;91.01
51245;BME280;37840;47.562;18.738;2023-08-30T08:11:57;98740.09;;;18.60;91.28
51245;BME280;37840;47.562;18.738;2023-08-30T08:14:24;98754.09;;;18.55;92.14
51245;BME280;37840;47.562;18.738;2023-08-30T08:16:50;98759.47;;;18.55;91.10
51245;BME280;37840;47.562;18.738;2023-08-30T08:19:16;98769.88;;;18.58;90.74
51245;BME280;37840;47.562;18.738;2023-08-30T08:21:42;98765.41;;;18.65;91.08
51245;BME280;37840;47.562;18.738;2023-08-30T08:24:08;98776.75;;;18.75;91.69
51245;BME280;37840;47.562;18.738;2023-08-30T08:26:34;98772.31;;;18.83;90.76
51245;BME280;37840;47.562;18.738;2023-08-30T08:29:00;98772.78;;;18.86;89.07
51245;BME280;37840;47.562;18.738;2023-08-30T08:31:26;98769.09;;;18.87;89.52
51245;BME280;37840;47.562;18.738;2023-08-30T08:34:06;98771.22;;;18.92;89.77
51245;BME280;37840;47.562;18.738;2023-08-30T08:36:32;98764.38;;;18.89;88.55
51245;BME280;37840;47.562;18.738;2023-08-30T08:38:58;98773.28;;;18.90;90.06
51245;BME280;37840;47.562;18.738;2023-08-30T08:41:29;98777.72;;;18.83;90.52
51245;BME280;37840;47.562;18.738;2023-08-30T08:43:59;98770.50;;;18.83;90.83
51245;BME280;37840;47.562;18.738;2023-08-30T08:46:26;98771.97;;;18.86;90.04
51245;BME280;37840;47.562;18.738;2023-08-30T08:48:55;98766.84;;;18.91;90.19
51245;BME280;37840;47.562;18.738;2023-08-30T08:51:23;98764.44;;;18.96;89.77
51245;BME280;37840;47.562;18.738;2023-08-30T08:53:50;98754.31;;;19.13;91.29
51245;BME280;37840;47.562;18.738;2023-08-30T08:56:16;98763.94;;;19.22;89.83
51245;BME280;37840;47.562;18.738;2023-08-30T08:58:43;98766.63;;;19.22;89.30
51245;BME280;37840;47.562;18.738;2023-08-30T09:01:10;98761.72;;;19.26;88.22
51245;BME280;37840;47.562;18.738;2023-08-30T09:03:36;98762.16;;;19.29;87.96
51245;BME280;37840;47.562;18.738;2023-08-30T09:06:03;98755.47;;;19.25;87.57
51245;BME280;37840;47.562;18.738;2023-08-30T09:08:29;98761.88;;;19.24;86.88
51245;BME280;37840;47.562;18.738;2023-08-30T09:10:55;98775.19;;;19.26;88.41
51245;BME280;37840;47.562;18.738;2023-08-30T09:13:21;98770.06;;;19.16;88.82
51245;BME280;37840;47.562;18.738;2023-08-30T09:15:48;98767.19;;;19.18;88.94
51245;BME280;37840;47.562;18.738;2023-08-30T09:18:18;98768.50;;;19.22;88.44
51245;BME280;37840;47.562;18.738;2023-08-30T09:20:44;98769.31;;;19.22;88.15
51245;BME280;37840;47.562;18.738;2023-08-30T09:23:20;98772.19;;;19.21;88.87
51245;BME280;37840;47.562;18.738;2023-08-30T09:25:47;98785.31;;;19.24;89.31
51245;BME280;37840;47.562;18.738;2023-08-30T09:28:19;98782.41;;;19.25;88.87
51245;BME280;37840;47.562;18.738;2023-08-30T09:30:52;98785.75;;;19.27;87.48
51245;BME280;37840;47.562;18.738;2023-08-30T09:33:22;98780.47;;;19.34;88.81
51245;BME280;37840;47.562;18.738;2023-08-30T09:35:48;98782.13;;;19.35;87.59
51245;BME280;37840;47.562;18.738;2023-08-30T09:38:18;98790.78;;;19.30;87.26
51245;BME280;37840;47.562;18.738;2023-08-30T09:40:44;98785.88;;;19.34;88.71
51245;BME280;37840;47.562;18.738;2023-08-30T09:43:12;98783.72;;;19.29;89.44
51245;BME280;37840;47.562;18.738;2023-08-30T09:45:38;98792.44;;;19.31;88.66
51245;BME280;37840;47.562;18.738;2023-08-30T09:48:05;98788.91;;;19.31;88.06
51245;BME280;37840;47.562;18.738;2023-08-30T09:50:33;98800.53;;;19.31;88.33
51245;BME280;37840;47.562;18.738;2023-08-30T09:53:06;98800.91;;;19.28;88.51
51245;BME280;37840;47.562;18.738;2023-08-30T09:55:33;98803.97;;;19.25;89.30
51245;BME280;37840;47.562;18.738;2023-08-30T09:58:01;98814.13;;;19.38;90.01
51245;BME280;37840;47.562;18.738;2023-08-30T10:00:28;98809.34;;;19.40;88.96
51245;BME280;37840;47.562;18.738;2023-08-30T10:02:54;98808.59;;;19.46;89.34
51245;BME280;37840;47.562;18.738;2023-08-30T10:05:21;98796.81;;;19.47;88.51
51245;BME280;37840;47.562;18.738;2023-08-30T10:07:47;98793.28;;;19.47;88.63
51245;BME280;37840;47.562;18.738;2023-08-30T10:10:14;98806.75;;;19.47;88.90
51245;BME280;37840;47.562;18.738;2023-08-30T10:12:40;98813.50;;;19.58;88.74
51245;BME280;37840;47.562;18.738;2023-08-30T10:15:08;98808.66;;;19.68;88.52
51245;BME280;37840;47.562;18.738;2023-08-30T10:17:35;98802.81;;;19.64;87.37
51245;BME280;37840;47.562;18.738;2023-08-30T10:20:07;98803.75;;;19.56;88.44
51245;BME280;37840;47.562;18.738;2023-08-30T10:22:37;98805.97;;;19.68;88.67
51245;BME280;37840;47.562;18.738;2023-08-30T10:25:11;98805.75;;;19.69;87.72
51245;BME280;37840;47.562;18.738;2023-08-30T10:27:46;98799.91;;;19.81;85.49
51245;BME280;37840;47.562;18.738;2023-08-30T10:30:13;98792.06;;;19.86;85.49
51245;BME280;37840;47.562;18.738;2023-08-30T10:32:40;98793.22;;;19.77;86.78
51245;BME280;37840;47.562;18.738;2023-08-30T10:35:06;98803.91;;;19.70;87.40
51245;BME280;37840;47.562;18.738;2023-08-30T10:37:32;98800.34;;;19.84;85.97
51245;BME280;37840;47.562;18.738;2023-08-30T10:40:01;98803.69;;;19.86;84.55
51245;BME280;37840;47.562;18.738;2023-08-30T10:42:31;98806.38;;;19.86;86.25
51245;BME280;37840;47.562;18.738;2023-08-30T10:47:25;98805.47;;;19.79;85.19
51245;BME280;37840;47.562;18.738;2023-08-30T10:49:54;98801.16;;;19.85;85.86
51245;BME280;37840;47.562;18.738;2023-08-30T10:52:21;98805.66;;;19.78;86.84
51245;BME280;37840;47.562;18.738;2023-08-30T10:54:48;98811.34;;;19.83;87.47
51245;BME280;37840;47.562;18.738;2023-08-30T10:57:15;98803.94;;;19.91;86.88
51245;BME280;37840;47.562;18.738;2023-08-30T11:00:07;98802.38;;;19.82;87.58
51245;BME280;37840;47.562;18.738;2023-08-30T11:02:36;98815.56;;;19.92;87.21
51245;BME280;37840;47.562;18.738;2023-08-30T11:05:05;98803.56;;;19.94;85.54
51245;BME280;37840;47.562;18.738;2023-08-30T11:07:32;98806.06;;;19.96;85.82
51245;BME280;37840;47.562;18.738;2023-08-30T11:09:58;98806.44;;;19.93;86.12
51245;BME280;37840;47.562;18.738;2023-08-30T11:12:24;98799.63;;;19.97;85.72
51245;BME280;37840;47.562;18.738;2023-08-30T11:14:56;98797.75;;;19.98;84.61
51245;BME280;37840;47.562;18.738;2023-08-30T11:17:22;98795.97;;;20.05;86.58
51245;BME280;37840;47.562;18.738;2023-08-30T11:19:57;98783.97;;;20.07;86.91
51245;BME280;37840;47.562;18.738;2023-08-30T11:22:24;98788.97;;;20.10;87.09
51245;BME280;37840;47.562;18.738;2023-08-30T11:24:51;98793.22;;;20.20;87.07
51245;BME280;37840;47.562;18.738;2023-08-30T11:27:17;98790.41;;;20.34;88.54
51245;BME280;37840;47.562;18.738;2023-08-30T11:29:43;98787.78;;;20.41;87.33
51245;BME280;37840;47.562;18.738;2023-08-30T11:32:09;98787.00;;;20.47;84.35
51245;BME280;37840;47.562;18.738;2023-08-30T11:34:35;98788.47;;;20.50;82.75
51245;BME280;37840;47.562;18.738;2023-08-30T11:37:01;98791.56;;;20.47;82.82
51245;BME280;37840;47.562;18.738;2023-08-30T11:39:28;98790.41;;;20.34;83.95
51245;BME280;37840;47.562;18.738;2023-08-30T11:41:55;98789.59;;;20.34;83.44
51245;BME280;37840;47.562;18.738;2023-08-30T11:44:24;98791.69;;;20.39;82.67
51245;BME280;37840;47.562;18.738;2023-08-30T11:47:00;98788.66;;;20.48;83.11
51245;BME280;37840;47.562;18.738;2023-08-30T11:49:29;98792.25;;;20.55;81.98
51245;BME280;37840;47.562;18.738;2023-08-30T11:51:56;98794.69;;;20.50;82.74
51245;BME280;37840;47.562;18.738;2023-08-30T11:54:24;98797.37;;;20.50;81.80
51245;BME280;37840;47.562;18.738;2023-08-30T11:56:50;98793.84;;;20.50;82.15
51245;BME280;37840;47.562;18.738;2023-08-30T11:59:22;98805.00;;;20.40;81.33
51245;BME280;37840;47.562;18.738;2023-08-30T12:01:49;98799.06;;;20.23;82.31
51245;BME280;37840;47.562;18.738;2023-08-30T12:04:15;98798.91;;;20.31;82.92
51245;BME280;37840;47.562;18.738;2023-08-30T12:06:41;98795.63;;;20.36;81.79
51245;BME280;37840;47.562;18.738;2023-08-30T12:09:12;98792.97;;;20.43;80.56
51245;BME280;37840;47.562;18.738;2023-08-30T12:11:38;98793.34;;;20.40;80.69
51245;BME280;37840;47.562;18.738;2023-08-30T12:14:04;98793.56;;;20.38;81.95
51245;BME280;37840;47.562;18.738;2023-08-30T12:16:30;98784.62;;;20.37;82.56
51245;BME280;37840;47.562;18.738;2023-08-30T12:19:07;98782.91;;;20.30;80.22
51245;BME280;37840;47.562;18.738;2023-08-30T12:21:42;98794.63;;;20.15;81.05
51245;BME280;37840;47.562;18.738;2023-08-30T12:24:09;98789.97;;;20.31;82.41
51245;BME280;37840;47.562;18.738;2023-08-30T12:26:35;98789.84;;;20.39;81.61
51245;BME280;37840;47.562;18.738;2023-08-30T12:29:04;98789.84;;;20.39;81.99
51245;BME280;37840;47.562;18.738;2023-08-30T12:31:32;98794.09;;;20.27;81.87
51245;BME280;37840;47.562;18.738;2023-08-30T12:33:58;98790.41;;;20.34;82.85
51245;BME280;37840;47.562;18.738;2023-08-30T12:36:24;98785.16;;;20.54;80.99
51245;BME280;37840;47.562;18.738;2023-08-30T12:38:50;98792.69;;;20.59;78.75
51245;BME280;37840;47.562;18.738;2023-08-30T12:41:16;98789.63;;;20.62;79.53
51245;BME280;37840;47.562;18.738;2023-08-30T12:43:42;98784.41;;;20.61;79.38
51245;BME280;37840;47.562;18.738;2023-08-30T12:46:08;98781.44;;;20.55;79.36
51245;BME280;37840;47.562;18.738;2023-08-30T12:48:34;98777.47;;;20.51;77.71
51245;BME280;37840;47.562;18.738;2023-08-30T12:51:00;98775.09;;;20.42;77.67
51245;BME280;37840;47.562;18.738;2023-08-30T12:53:26;98779.16;;;20.31;78.36
51245;BME280;37840;47.562;18.738;2023-08-30T12:55:54;98772.41;;;20.42;78.54
51245;BME280;37840;47.562;18.738;2023-08-30T12:58:20;98776.81;;;20.49;78.27